| time (UTC) | temp F | wind direction | speed knots | gust knots | rain 1hr in | rain 24hr in | rain mn in | humidity % | barometer mb |
| 20260506165155 | 74 | 46 | 4.3 | 10.4 | 0.00 | 0.00 | 0.00 | 75 | 1011.4 |
| 20260506164620 | 75 | 38 | 4.3 | 12.2 | 0.00 | 0.00 | 0.00 | 75 | 1011.4 |
| 20260506164153 | 77 | 32 | 8.7 | 12.2 | 0.00 | 0.00 | 0.00 | 74 | 1011.4 |
| 20260506163620 | 77 | 98 | 2.6 | 6.1 | 0.00 | 0.00 | 0.00 | 78 | 1011.1 |
| 20260506163151 | 77 | 93 | 3.5 | 8.7 | 0.00 | 0.00 | 0.00 | 78 | 1011.1 |
| 20260506162716 | 77 | 76 | 4.3 | 8.7 | 0.00 | 0.00 | 0.00 | 78 | 1011.1 |
| 20260506162229 | 77 | 80 | 4.3 | 7.8 | 0.00 | 0.00 | 0.00 | 78 | 1011.1 |
| 20260506161634 | 77 | 42 | 5.2 | 7.0 | 0.00 | 0.00 | 0.00 | 79 | 1011.1 |
| 20260506161140 | 77 | 40 | 4.3 | 7.8 | 0.00 | 0.00 | 0.00 | 79 | 1011.1 |
| 20260506160652 | 77 | 78 | 3.5 | 7.8 | 0.00 | 0.00 | 0.00 | 80 | 1011.0 |
| 20260506160117 | 77 | 112 | 3.5 | 7.8 | 0.00 | 0.00 | 0.00 | 81 | 1011.0 |
| 20260506155651 | 77 | 103 | 2.6 | 6.1 | 0.00 | 0.00 | 0.00 | 81 | 1011.0 |
| 20260506155116 | 77 | 53 | 3.5 | 6.1 | 0.00 | 0.00 | 0.00 | 82 | 1011.0 |
| 20260506154650 | 76 | 95 | 3.5 | 6.1 | 0.00 | 0.00 | 0.00 | 83 | 1011.0 |
| 20260506154120 | 76 | 86 | 1.7 | 4.3 | 0.00 | 0.00 | 0.00 | 83 | 1011.0 |
| 20260506153645 | 76 | 51 | 1.7 | 4.3 | 0.00 | 0.00 | 0.00 | 84 | 1010.9 |
| 20260506153118 | 76 | 104 | 1.7 | 3.5 | 0.00 | 0.00 | 0.00 | 85 | 1010.8 |
| 20260506152643 | 76 | 88 | 1.7 | 3.5 | 0.00 | 0.00 | 0.00 | 85 | 1010.8 |
| 20260506152115 | 76 | 130 | 0.0 | 4.3 | 0.00 | 0.00 | 0.00 | 86 | 1010.5 |
| 20260506151642 | 75 | 142 | 1.7 | 4.3 | 0.00 | 0.00 | 0.00 | 86 | 1010.4 |
| 20260506151154 | 75 | 123 | 0.0 | 3.5 | 0.00 | 0.00 | 0.00 | 86 | 1010.4 |
| 20260506150620 | 75 | 123 | 0.9 | 3.5 | 0.00 | 0.00 | 0.00 | 86 | 1010.2 |
| 20260506150154 | 75 | 154 | 1.7 | 3.5 | 0.00 | 0.00 | 0.00 | 87 | 1010.2 |
| 20260506145618 | 75 | 138 | 0.0 | 3.5 | 0.00 | 0.00 | 0.00 | 87 | 1010.2 |
| 20260506145144 | 75 | 165 | 0.9 | 3.5 | 0.00 | 0.00 | 0.00 | 87 | 1010.2 |
| 20260506144654 | 75 | 135 | 1.7 | 3.5 | 0.00 | 0.00 | 0.00 | 87 | 1010.1 |
| 20260506144218 | 75 | 146 | 1.7 | 3.5 | 0.00 | 0.00 | 0.00 | 87 | 1010.0 |
| 20260506143708 | 75 | 148 | 0.9 | 1.7 | 0.00 | 0.00 | 0.00 | 87 | 1010.1 |
| 20260506143133 | 75 | 116 | 0.9 | 1.7 | 0.00 | 0.00 | 0.00 | 87 | 1010.2 |
| 20260506142707 | 75 | 129 | 0.9 | 1.7 | 0.00 | 0.00 | 0.00 | 87 | 1010.3 |
| 20260506142232 | 75 | 128 | 0.0 | 0.9 | 0.00 | 0.00 | 0.00 | 87 | 1010.3 |
| 20260506141643 | 75 | 129 | 0.0 | 3.5 | 0.00 | 0.00 | 0.00 | 87 | 1010.2 |
| 20260506141206 | 75 | 128 | 0.9 | 3.5 | 0.00 | 0.00 | 0.00 | 87 | 1010.3 |
| 20260506140639 | 75 | 88 | 1.7 | 4.3 | 0.00 | 0.00 | 0.00 | 87 | 1010.1 |
| 20260506140146 | 75 | 117 | 1.7 | 4.3 | 0.00 | 0.00 | 0.00 | 87 | 1009.8 |
| 20260506135615 | 75 | 113 | 0.9 | 4.3 | 0.00 | 0.00 | 0.00 | 87 | 1009.7 |
| 20260506135149 | 75 | 112 | 1.7 | 5.2 | 0.00 | 0.00 | 0.00 | 87 | 1009.4 |
| 20260506134615 | 75 | 115 | 2.6 | 5.2 | 0.00 | 0.00 | 0.00 | 87 | 1009.2 |
| 20260506134142 | 75 | 121 | 1.7 | 5.2 | 0.00 | 0.00 | 0.00 | 87 | 1009.1 |
| 20260506133634 | 75 | 118 | 2.6 | 5.2 | 0.00 | 0.00 | 0.00 | 87 | 1009.0 |
| 20260506133157 | 75 | 148 | 1.7 | 6.1 | 0.00 | 0.00 | 0.00 | 87 | 1008.9 |
| 20260506132710 | 75 | 146 | 2.6 | 6.1 | 0.00 | 0.00 | 0.00 | 87 | 1008.8 |
| 20260506132132 | 75 | 128 | 1.7 | 4.3 | 0.00 | 0.00 | 0.00 | 87 | 1008.8 |
| 20260506131137 | 75 | 128 | 3.5 | 6.1 | 0.00 | 0.00 | 0.00 | 87 | 1008.8 |
| 20260506130704 | 75 | 115 | 2.6 | 5.2 | 0.00 | 0.00 | 0.00 | 87 | 1008.8 |
| 20260506130139 | 75 | 90 | 1.7 | 5.2 | 0.00 | 0.00 | 0.00 | 87 | 1008.7 |
| 20260506125708 | 74 | 93 | 1.7 | 5.2 | 0.00 | 0.00 | 0.00 | 87 | 1008.7 |
| 20260506125138 | 74 | 131 | 3.5 | 5.2 | 0.00 | 0.00 | 0.00 | 87 | 1008.5 |
| 20260506124703 | 74 | 146 | 2.6 | 6.1 | 0.00 | 0.00 | 0.00 | 87 | 1008.5 |
| 20260506124134 | 74 | 111 | 3.5 | 7.0 | 0.00 | 0.00 | 0.00 | 87 | 1008.5 |
| 20260506123701 | 74 | 109 | 2.6 | 6.1 | 0.00 | 0.00 | 0.00 | 87 | 1008.5 |
| 20260506123124 | 74 | 122 | 2.6 | 4.3 | 0.00 | 0.00 | 0.00 | 87 | 1008.5 |
| 20260506122656 | 74 | 134 | 2.6 | 5.2 | 0.00 | 0.00 | 0.00 | 87 | 1008.5 |
| 20260506122158 | 74 | 135 | 3.5 | 5.2 | 0.00 | 0.00 | 0.00 | 87 | 1008.5 |
| 20260506121630 | 74 | 122 | 3.5 | 4.3 | 0.00 | 0.00 | 0.00 | 87 | 1008.4 |
| 20260506121154 | 74 | 142 | 1.7 | 3.5 | 0.00 | 0.00 | 0.00 | 87 | 1008.5 |
| 20260506120631 | 74 | 157 | 1.7 | 2.6 | 0.00 | 0.00 | 0.00 | 87 | 1008.5 |
| 20260506120157 | 74 | 144 | 1.7 | 4.3 | 0.00 | 0.00 | 0.00 | 87 | 1008.5 |
| 20260506115711 | 74 | 145 | 1.7 | 4.3 | 0.00 | 0.00 | 0.00 | 87 | 1008.5 |
| 20260506115137 | 74 | 167 | 1.7 | 2.6 | 0.00 | 0.00 | 0.00 | 87 | 1008.5 |
| 20260506114711 | 74 | 141 | 0.9 | 3.5 | 0.00 | 0.00 | 0.00 | 87 | 1008.4 |
| 20260506114135 | 74 | 140 | 0.9 | 3.5 | 0.00 | 0.00 | 0.00 | 86 | 1008.5 |
| 20260506113700 | 74 | 204 | 0.0 | 0.0 | 0.00 | 0.00 | 0.00 | 86 | 1008.5 |
| 20260506113130 | 74 | 205 | 0.0 | 0.0 | 0.00 | 0.00 | 0.00 | 86 | 1008.5 |
| 20260506112655 | 74 | 204 | 0.0 | 0.0 | 0.00 | 0.00 | 0.00 | 86 | 1008.5 |
| 20260506112133 | 74 | 204 | 0.0 | 0.0 | 0.00 | 0.00 | 0.00 | 86 | 1008.5 |
| 20260506111650 | 74 | 205 | 0.0 | 0.0 | 0.00 | 0.00 | 0.00 | 86 | 1008.5 |
| 20260506111140 | 74 | 205 | 0.0 | 0.0 | 0.00 | 0.00 | 0.00 | 86 | 1008.5 |
| 20260506110706 | 74 | 204 | 0.0 | 0.0 | 0.00 | 0.00 | 0.00 | 86 | 1008.5 |
| 20260506110139 | 74 | 205 | 0.0 | 1.7 | 0.00 | 0.00 | 0.00 | 86 | 1008.5 |
| 20260506105645 | 74 | 175 | 0.0 | 1.7 | 0.00 | 0.00 | 0.00 | 86 | 1008.5 |
| 20260506105205 | 74 | 175 | 0.9 | 1.7 | 0.00 | 0.00 | 0.00 | 86 | 1008.5 |
| 20260506104617 | 74 | 195 | 0.9 | 4.3 | 0.00 | 0.00 | 0.00 | 86 | 1008.3 |
| 20260506104122 | 74 | 160 | 0.9 | 4.3 | 0.00 | 0.00 | 0.00 | 86 | 1008.3 |
| 20260506103652 | 74 | 151 | 1.7 | 4.3 | 0.00 | 0.00 | 0.00 | 86 | 1008.2 |
| 20260506103156 | 74 | 196 | 2.6 | 7.0 | 0.00 | 0.00 | 0.00 | 86 | 1008.2 |
| 20260506102621 | 75 | 182 | 2.6 | 6.1 | 0.00 | 0.00 | 0.00 | 86 | 1008.2 |
| 20260506102155 | 75 | 182 | 2.6 | 6.1 | 0.00 | 0.00 | 0.00 | 86 | 1008.3 |
| 20260506101624 | 75 | 188 | 3.5 | 7.8 | 0.00 | 0.00 | 0.00 | 86 | 1008.3 |
| 20260506101159 | 75 | 182 | 4.3 | 8.7 | 0.00 | 0.00 | 0.00 | 86 | 1008.3 |
| 20260506100703 | 75 | 173 | 5.2 | 8.7 | 0.00 | 0.00 | 0.00 | 86 | 1008.3 |
| 20260506100124 | 75 | 204 | 4.3 | 8.7 | 0.00 | 0.00 | 0.00 | 85 | 1008.2 |
| 20260506095650 | 75 | 196 | 5.2 | 8.7 | 0.00 | 0.00 | 0.00 | 85 | 1008.2 |
| 20260506095140 | 75 | 216 | 2.6 | 9.6 | 0.00 | 0.00 | 0.00 | 85 | 1008.2 |
| 20260506094706 | 75 | 223 | 4.3 | 9.6 | 0.00 | 0.00 | 0.00 | 85 | 1008.1 |
| 20260506094131 | 75 | 186 | 5.2 | 8.7 | 0.00 | 0.00 | 0.00 | 85 | 1008.2 |
| 20260506093704 | 75 | 165 | 4.3 | 8.7 | 0.00 | 0.00 | 0.00 | 85 | 1008.1 |
| 20260506093128 | 75 | 194 | 3.5 | 8.7 | 0.00 | 0.00 | 0.00 | 85 | 1008.1 |
| 20260506092701 | 75 | 212 | 3.5 | 7.8 | 0.00 | 0.00 | 0.00 | 85 | 1008.2 |
| 20260506092128 | 75 | 198 | 3.5 | 7.0 | 0.00 | 0.00 | 0.00 | 85 | 1008.1 |
| 20260506091701 | 75 | 187 | 2.6 | 8.7 | 0.00 | 0.00 | 0.00 | 85 | 1008.0 |
| 20260506091229 | 75 | 186 | 5.2 | 8.7 | 0.00 | 0.00 | 0.00 | 85 | 1008.0 |
| 20260506090641 | 75 | 165 | 5.2 | 9.6 | 0.00 | 0.00 | 0.00 | 85 | 1008.0 |
| 20260506090126 | 75 | 196 | 6.1 | 9.6 | 0.00 | 0.00 | 0.00 | 85 | 1008.0 |
| 20260506085651 | 75 | 146 | 4.3 | 7.8 | 0.00 | 0.00 | 0.00 | 85 | 1008.0 |
| 20260506085225 | 75 | 161 | 3.5 | 7.0 | 0.00 | 0.00 | 0.00 | 85 | 1007.9 |
| 20260506084629 | 75 | 175 | 2.6 | 7.0 | 0.00 | 0.00 | 0.00 | 85 | 1008.0 |
| 20260506084155 | 75 | 157 | 4.3 | 9.6 | 0.00 | 0.00 | 0.00 | 85 | 1007.9 |
| 20260506083643 | 75 | 175 | 6.1 | 13.0 | 0.00 | 0.00 | 0.00 | 85 | 1007.9 |
| 20260506083205 | 75 | 158 | 7.0 | 13.0 | 0.00 | 0.00 | 0.00 | 85 | 1007.9 |
| 20260506082631 | 75 | 168 | 5.2 | 12.2 | 0.00 | 0.00 | 0.00 | 85 | 1007.8 |
| 20260506082204 | 75 | 205 | 6.1 | 12.2 | 0.00 | 0.00 | 0.00 | 85 | 1007.8 |
| 20260506081630 | 75 | 177 | 5.2 | 11.3 | 0.00 | 0.00 | 0.00 | 85 | 1007.9 |
| 20260506081202 | 75 | 137 | 3.5 | 11.3 | 0.00 | 0.00 | 0.00 | 85 | 1008.0 |
| 20260506080629 | 75 | 161 | 7.0 | 12.2 | 0.00 | 0.00 | 0.00 | 85 | 1008.0 |
| 20260506080201 | 75 | 174 | 7.0 | 12.2 | 0.00 | 0.00 | 0.00 | 85 | 1008.0 |
| 20260506073145 | 75 | 160 | 5.2 | 10.4 | 0.00 | 0.00 | 0.00 | 85 | 1008.2 |
| 20260506072614 | 75 | 142 | 6.1 | 9.6 | 0.00 | 0.00 | 0.00 | 85 | 1008.2 |
| 20260506072145 | 75 | 167 | 4.3 | 9.6 | 0.00 | 0.00 | 0.00 | 85 | 1008.3 |
| 20260506071712 | 75 | 198 | 3.5 | 9.6 | 0.00 | 0.00 | 0.00 | 85 | 1008.4 |
| 20260506071116 | 75 | 171 | 5.2 | 7.8 | 0.00 | 0.00 | 0.00 | 85 | 1008.4 |
| 20260506070651 | 75 | 169 | 4.3 | 9.6 | 0.00 | 0.00 | 0.00 | 85 | 1008.5 |
| 20260506070117 | 75 | 149 | 4.3 | 9.6 | 0.00 | 0.00 | 0.00 | 85 | 1008.6 |
| 20260506062131 | 75 | 157 | 6.1 | 13.0 | 0.00 | 0.00 | 0.00 | 84 | 1008.6 |
| 20260506061629 | 75 | 147 | 5.2 | 7.8 | 0.00 | 0.00 | 0.00 | 84 | 1008.7 |
| 20260506061132 | 76 | 167 | 4.3 | 8.7 | 0.00 | 0.00 | 0.00 | 84 | 1008.6 |
| 20260506060638 | 76 | 169 | 5.2 | 11.3 | 0.00 | 0.00 | 0.00 | 84 | 1008.6 |
| 20260506060132 | 76 | 155 | 5.2 | 11.3 | 0.00 | 0.00 | 0.00 | 84 | 1008.7 |
| 20260506051128 | 76 | 167 | 3.5 | 9.6 | 0.00 | 0.00 | 0.00 | 83 | 1008.5 |
| 20260506050649 | 76 | 151 | 5.2 | 9.6 | 0.00 | 0.00 | 0.00 | 83 | 1008.5 |
| 20260506045117 | 77 | 148 | 5.2 | 8.7 | 0.00 | 0.00 | 0.00 | 83 | 1008.5 |
| 20260506044651 | 77 | 131 | 4.3 | 8.7 | 0.00 | 0.00 | 0.00 | 83 | 1008.5 |
| 20260506044134 | 77 | 136 | 6.1 | 9.6 | 0.00 | 0.00 | 0.00 | 83 | 1008.4 |
| 20260506043645 | 77 | 140 | 6.1 | 9.6 | 0.00 | 0.00 | 0.00 | 83 | 1008.4 |
| 20260506043113 | 77 | 186 | 4.3 | 9.6 | 0.00 | 0.00 | 0.00 | 83 | 1008.5 |
| 20260506042644 | 77 | 164 | 4.3 | 10.4 | 0.00 | 0.00 | 0.00 | 82 | 1008.5 |
| 20260506042210 | 77 | 134 | 5.2 | 10.4 | 0.00 | 0.00 | 0.00 | 82 | 1008.3 |
| 20260506041642 | 77 | 140 | 5.2 | 8.7 | 0.00 | 0.00 | 0.00 | 82 | 1008.3 |
| 20260506041208 | 77 | 170 | 5.2 | 10.4 | 0.00 | 0.00 | 0.00 | 82 | 1008.3 |
| 20260506040638 | 77 | 139 | 6.1 | 10.4 | 0.00 | 0.00 | 0.00 | 82 | 1008.3 |
| 20260506040203 | 77 | 146 | 6.1 | 9.6 | 0.00 | 0.00 | 0.00 | 82 | 1008.1 |
| 20260506035628 | 77 | 151 | 3.5 | 7.8 | 0.00 | 0.00 | 0.00 | 82 | 1008.1 |
| 20260506035159 | 77 | 128 | 2.6 | 5.2 | 0.00 | 0.00 | 0.00 | 81 | 1008.1 |
| 20260506034628 | 77 | 125 | 2.6 | 5.2 | 0.00 | 0.00 | 0.00 | 81 | 1008.0 |
| 20260506034158 | 77 | 126 | 2.6 | 5.2 | 0.00 | 0.00 | 0.00 | 81 | 1007.9 |
| 20260506033624 | 77 | 159 | 2.6 | 5.2 | 0.00 | 0.00 | 0.00 | 81 | 1007.8 |
| 20260506033158 | 77 | 145 | 2.6 | 5.2 | 0.00 | 0.00 | 0.00 | 81 | 1007.9 |
| 20260506032623 | 77 | 140 | 3.5 | 5.2 | 0.00 | 0.00 | 0.00 | 80 | 1007.8 |
| 20260506032135 | 77 | 129 | 2.6 | 7.0 | 0.00 | 0.00 | 0.00 | 80 | 1007.7 |
| 20260506031701 | 77 | 115 | 2.6 | 7.0 | 0.00 | 0.00 | 0.00 | 80 | 1007.5 |
| 20260506031134 | 77 | 159 | 3.5 | 6.1 | 0.00 | 0.00 | 0.00 | 79 | 1007.5 |
| 20260506030618 | 78 | 158 | 3.5 | 6.1 | 0.00 | 0.00 | 0.00 | 79 | 1007.4 |
| 20260506030143 | 78 | 120 | 3.5 | 5.2 | 0.00 | 0.00 | 0.00 | 78 | 1007.3 |
| 20260506025621 | 78 | 142 | 3.5 | 6.1 | 0.00 | 0.00 | 0.00 | 78 | 1007.1 |
| 20260506025145 | 78 | 134 | 3.5 | 6.1 | 0.00 | 0.00 | 0.00 | 78 | 1007.0 |
| 20260506024658 | 78 | 150 | 3.5 | 5.2 | 0.00 | 0.00 | 0.00 | 77 | 1007.0 |
| 20260506024123 | 78 | 154 | 1.7 | 4.3 | 0.00 | 0.00 | 0.00 | 77 | 1007.0 |
| 20260506023656 | 78 | 142 | 2.6 | 4.3 | 0.00 | 0.00 | 0.00 | 76 | 1006.9 |
| 20260506023121 | 78 | 128 | 0.9 | 3.5 | 0.00 | 0.00 | 0.00 | 76 | 1007.0 |
| 20260506022655 | 79 | 147 | 1.7 | 3.5 | 0.00 | 0.00 | 0.00 | 76 | 1006.9 |
| 20260506022221 | 79 | 144 | 0.9 | 4.3 | 0.00 | 0.00 | 0.00 | 75 | 1006.8 |
| 20260506021630 | 79 | 154 | 1.7 | 4.3 | 0.00 | 0.00 | 0.00 | 75 | 1006.7 |
| 20260506021157 | 79 | 129 | 1.7 | 4.3 | 0.00 | 0.00 | 0.00 | 75 | 1006.6 |
| 20260506020622 | 79 | 140 | 0.9 | 3.5 | 0.00 | 0.00 | 0.00 | 74 | 1006.5 |
| 20260506020155 | 79 | 140 | 1.7 | 3.5 | 0.00 | 0.00 | 0.00 | 74 | 1006.5 |
| 20260506015622 | 80 | 140 | 0.9 | 3.5 | 0.00 | 0.00 | 0.00 | 73 | 1006.4 |
| 20260506015156 | 80 | 140 | 1.7 | 2.6 | 0.00 | 0.00 | 0.00 | 73 | 1006.3 |
| 20260506014616 | 80 | 132 | 0.9 | 3.5 | 0.00 | 0.00 | 0.00 | 72 | 1006.2 |
| 20260506014150 | 80 | 128 | 1.7 | 3.5 | 0.00 | 0.00 | 0.00 | 72 | 1006.0 |
| 20260506013654 | 81 | 130 | 1.7 | 4.3 | 0.00 | 0.00 | 0.00 | 71 | 1006.0 |
| 20260506013124 | 81 | 139 | 1.7 | 4.3 | 0.00 | 0.00 | 0.00 | 70 | 1005.9 |
| 20260506012649 | 81 | 142 | 1.7 | 2.6 | 0.00 | 0.00 | 0.00 | 70 | 1005.9 |
| 20260506012222 | 81 | 137 | 1.7 | 4.3 | 0.00 | 0.00 | 0.00 | 69 | 1005.9 |
| 20260506011729 | 82 | 137 | 1.7 | 4.3 | 0.00 | 0.00 | 0.00 | 69 | 1005.9 |
| 20260506011139 | 82 | 134 | 1.7 | 4.3 | 0.00 | 0.00 | 0.00 | 68 | 1005.8 |
| 20260506010704 | 82 | 132 | 1.7 | 3.5 | 0.00 | 0.00 | 0.00 | 67 | 1005.8 |
| 20260506010140 | 83 | 127 | 1.7 | 3.5 | 0.00 | 0.00 | 0.00 | 66 | 1005.8 |
| 20260506005707 | 83 | 141 | 0.9 | 2.6 | 0.00 | 0.00 | 0.00 | 66 | 1005.8 |
| 20260506005133 | 83 | 142 | 0.9 | 1.7 | 0.00 | 0.00 | 0.00 | 65 | 1005.9 |
| 20260506004706 | 84 | 141 | 0.9 | 3.5 | 0.00 | 0.00 | 0.00 | 65 | 1005.8 |
| 20260506004130 | 84 | 142 | 0.9 | 3.5 | 0.00 | 0.00 | 0.00 | 64 | 1005.8 |
| 20260506003705 | 84 | 141 | 1.7 | 1.7 | 0.00 | 0.00 | 0.00 | 64 | 1005.7 |
| 20260506003130 | 84 | 142 | 0.9 | 3.5 | 0.00 | 0.00 | 0.00 | 63 | 1005.8 |
| 20260506002704 | 84 | 142 | 0.9 | 3.5 | 0.00 | 0.00 | 0.00 | 62 | 1005.8 |
| 20260506002134 | 84 | 205 | 0.9 | 3.5 | 0.00 | 0.00 | 0.00 | 62 | 1005.9 |
| 20260506001139 | 84 | 176 | 1.7 | 5.2 | 0.00 | 0.00 | 0.00 | 62 | 1005.8 |
| 20260506000703 | 84 | 197 | 2.6 | 4.3 | 0.00 | 0.00 | 0.00 | 62 | 1005.7 |
| 20260506000136 | 84 | 205 | 0.9 | 5.2 | 0.00 | 0.00 | 0.00 | 62 | 1005.7 |
| 20260505235701 | 84 | 211 | 3.5 | 5.2 | 0.00 | 0.00 | 0.00 | 61 | 1005.6 |
| 20260505235212 | 84 | 212 | 2.6 | 5.2 | 0.00 | 0.00 | 0.00 | 61 | 1005.7 |
| 20260505234648 | 84 | 237 | 3.5 | 7.0 | 0.00 | 0.00 | 0.00 | 61 | 1005.8 |
| 20260505234219 | 84 | 213 | 3.5 | 7.0 | 0.00 | 0.00 | 0.00 | 61 | 1005.7 |
| 20260505233619 | 84 | 201 | 2.6 | 5.2 | 0.00 | 0.00 | 0.00 | 62 | 1005.7 |
| 20260505233154 | 84 | 224 | 2.6 | 6.1 | 0.00 | 0.00 | 0.00 | 62 | 1005.7 |
| 20260505232614 | 84 | 221 | 4.3 | 6.1 | 0.00 | 0.00 | 0.00 | 61 | 1005.6 |
| 20260505232139 | 84 | 149 | 2.6 | 6.1 | 0.00 | 0.00 | 0.00 | 61 | 1005.6 |
| 20260505231615 | 84 | 189 | 1.7 | 7.8 | 0.00 | 0.00 | 0.00 | 61 | 1005.6 |
| 20260505231135 | 84 | 221 | 5.2 | 7.8 | 0.00 | 0.00 | 0.00 | 60 | 1005.6 |
| 20260505230706 | 84 | 168 | 2.6 | 9.6 | 0.00 | 0.00 | 0.00 | 60 | 1005.6 |
| 20260505230128 | 85 | 209 | 3.5 | 8.7 | 0.00 | 0.00 | 0.00 | 61 | 1005.7 |
| 20260505225630 | 85 | 166 | 2.6 | 7.0 | 0.00 | 0.00 | 0.00 | 61 | 1005.7 |
| 20260505225201 | 84 | 139 | 3.5 | 7.0 | 0.00 | 0.00 | 0.00 | 61 | 1005.5 |
| 20260505224703 | 85 | 194 | 4.3 | 8.7 | 0.00 | 0.00 | 0.00 | 60 | 1005.5 |
| 20260505224135 | 85 | 235 | 3.5 | 8.7 | 0.00 | 0.00 | 0.00 | 61 | 1005.4 |
| 20260505223701 | 85 | 179 | 4.3 | 8.7 | 0.00 | 0.00 | 0.00 | 60 | 1005.4 |
| 20260505223132 | 85 | 167 | 4.3 | 8.7 | 0.00 | 0.00 | 0.00 | 60 | 1005.4 |
| 20260505222656 | 85 | 183 | 4.3 | 10.4 | 0.00 | 0.00 | 0.00 | 61 | 1005.4 |
| 20260505222142 | 84 | 219 | 4.3 | 10.4 | 0.00 | 0.00 | 0.00 | 60 | 1005.6 |
| 20260505221706 | 84 | 175 | 5.2 | 9.6 | 0.00 | 0.00 | 0.00 | 59 | 1005.6 |
| 20260505221203 | 85 | 188 | 5.2 | 9.6 | 0.00 | 0.00 | 0.00 | 59 | 1005.6 |
| 20260505220116 | 85 | 148 | 4.3 | 11.3 | 0.00 | 0.00 | 0.00 | 59 | 1005.5 |
| 20260505215640 | 85 | 182 | 5.2 | 11.3 | 0.00 | 0.00 | 0.00 | 59 | 1005.6 |
| 20260505215205 | 85 | 216 | 2.6 | 11.3 | 0.00 | 0.00 | 0.00 | 60 | 1005.5 |
| 20260505214704 | 85 | 184 | 5.2 | 11.3 | 0.00 | 0.00 | 0.00 | 60 | 1005.7 |
| 20260505214115 | 85 | 208 | 4.3 | 9.6 | 0.00 | 0.00 | 0.00 | 61 | 1005.7 |
| 20260505213628 | 85 | 150 | 5.2 | 10.4 | 0.00 | 0.00 | 0.00 | 60 | 1005.7 |
| 20260505212706 | 84 | 198 | 5.2 | 10.4 | 0.00 | 0.00 | 0.00 | 61 | 1006.2 |
| 20260505211615 | 83 | 173 | 4.3 | 11.3 | 0.00 | 0.00 | 0.00 | 62 | 1006.2 |
| 20260505210625 | 83 | 150 | 4.3 | 9.6 | 0.00 | 0.00 | 0.00 | 62 | 1006.2 |
| 20260505205659 | 83 | 180 | 5.2 | 9.6 | 0.00 | 0.00 | 0.00 | 62 | 1006.6 |
| 20260505204627 | 83 | 183 | 6.1 | 11.3 | 0.00 | 0.00 | 0.00 | 61 | 1006.6 |
| 20260505204119 | 83 | 169 | 6.1 | 9.6 | 0.00 | 0.00 | 0.00 | 62 | 1006.7 |
| 20260505203225 | 83 | 186 | 7.0 | 12.2 | 0.00 | 0.00 | 0.00 | 62 | 1006.9 |
| 20260505202157 | 83 | 201 | 6.1 | 11.3 | 0.00 | 0.00 | 0.00 | 62 | 1007.0 |
| 20260505201628 | 83 | 217 | 4.3 | 8.7 | 0.00 | 0.00 | 0.00 | 63 | 1007.1 |
| 20260505201158 | 83 | 194 | 4.3 | 7.0 | 0.00 | 0.00 | 0.00 | 64 | 1007.1 |
| 20260505200623 | 82 | 218 | 0.9 | 10.4 | 0.00 | 0.00 | 0.00 | 64 | 1007.2 |
| 20260505200136 | 82 | 192 | 6.1 | 12.2 | 0.00 | 0.00 | 0.00 | 64 | 1007.4 |
| 20260505195702 | 82 | 169 | 6.1 | 12.2 | 0.00 | 0.00 | 0.00 | 64 | 1007.4 |
| 20260505195135 | 82 | 207 | 5.2 | 8.7 | 0.00 | 0.00 | 0.00 | 64 | 1007.4 |
| 20260505194700 | 82 | 165 | 4.3 | 10.4 | 0.00 | 0.00 | 0.00 | 65 | 1007.5 |
| 20260505194126 | 82 | 240 | 6.1 | 10.4 | 0.00 | 0.00 | 0.00 | 64 | 1007.4 |
| 20260505193657 | 81 | 222 | 7.0 | 11.3 | 0.00 | 0.00 | 0.00 | 66 | 1007.5 |
| 20260505193202 | 81 | 171 | 5.2 | 12.2 | 0.00 | 0.00 | 0.00 | 65 | 1007.5 |
| 20260505192638 | 81 | 172 | 7.0 | 12.2 | 0.00 | 0.00 | 0.00 | 67 | 1007.7 |
| 20260505191644 | 80 | 191 | 5.2 | 8.7 | 0.00 | 0.00 | 0.00 | 67 | 1007.7 |
| 20260505191149 | 80 | 236 | 2.6 | 9.6 | 0.00 | 0.00 | 0.00 | 68 | 1007.9 |
| 20260505190622 | 80 | 229 | 5.2 | 9.6 | 0.00 | 0.00 | 0.00 | 68 | 1007.9 |
| 20260505190147 | 80 | 210 | 5.2 | 8.7 | 0.00 | 0.00 | 0.00 | 68 | 1007.9 |
| 20260505185620 | 80 | 160 | 6.1 | 9.6 | 0.00 | 0.00 | 0.00 | 68 | 1007.9 |
| 20260505185147 | 80 | 167 | 5.2 | 9.6 | 0.00 | 0.00 | 0.00 | 68 | 1008.0 |
| 20260505184658 | 80 | 178 | 3.5 | 9.6 | 0.00 | 0.00 | 0.00 | 70 | 1008.2 |
| 20260505184123 | 79 | 215 | 5.2 | 9.6 | 0.00 | 0.00 | 0.00 | 72 | 1008.2 |
| 20260505183656 | 79 | 221 | 3.5 | 7.8 | 0.00 | 0.00 | 0.00 | 70 | 1008.3 |
| 20260505183126 | 79 | 227 | 4.3 | 7.8 | 0.00 | 0.00 | 0.00 | 70 | 1008.4 |
| 20260505182658 | 79 | 250 | 5.2 | 8.7 | 0.00 | 0.00 | 0.00 | 71 | 1008.4 |
| 20260505182123 | 79 | 225 | 5.2 | 8.7 | 0.00 | 0.00 | 0.00 | 71 | 1008.5 |
| 20260505181645 | 78 | 174 | 5.2 | 8.7 | 0.00 | 0.00 | 0.00 | 73 | 1008.6 |
| 20260505181157 | 78 | 186 | 4.3 | 8.7 | 0.00 | 0.00 | 0.00 | 73 | 1008.6 |
| 20260505180622 | 78 | 207 | 4.3 | 9.6 | 0.00 | 0.00 | 0.00 | 72 | 1008.6 |
| 20260505180155 | 78 | 220 | 5.2 | 9.6 | 0.00 | 0.00 | 0.00 | 73 | 1008.6 |
| 20260505175621 | 77 | 229 | 4.3 | 10.4 | 0.00 | 0.00 | 0.00 | 74 | 1008.7 |
| 20260505175154 | 77 | 261 | 4.3 | 10.4 | 0.00 | 0.00 | 0.00 | 75 | 1008.8 |
| 20260505174624 | 77 | 240 | 6.1 | 8.7 | 0.00 | 0.00 | 0.00 | 74 | 1008.9 |
| 20260505174136 | 77 | 258 | 4.3 | 9.6 | 0.00 | 0.00 | 0.00 | 75 | 1009.0 |
| 20260505173659 | 76 | 212 | 5.2 | 11.3 | 0.00 | 0.00 | 0.00 | 75 | 1008.8 |
| 20260505173151 | 76 | 223 | 6.1 | 11.3 | 0.00 | 0.00 | 0.00 | 76 | 1008.9 |
| 20260505172718 | 76 | 220 | 4.3 | 9.6 | 0.00 | 0.00 | 0.00 | 76 | 1008.9 |
| 20260505172121 | 76 | 216 | 4.3 | 8.7 | 0.00 | 0.00 | 0.00 | 77 | 1008.9 |
| 20260505171656 | 76 | 250 | 6.1 | 10.4 | 0.00 | 0.00 | 0.00 | 77 | 1009.0 |
| 20260505171120 | 76 | 189 | 6.1 | 10.4 | 0.00 | 0.00 | 0.00 | 78 | 1009.0 |
| 20260505170654 | 75 | 225 | 5.2 | 12.2 | 0.00 | 0.00 | 0.00 | 78 | 1008.9 |
| 20260505170154 | 75 | 201 | 7.0 | 12.2 | 0.00 | 0.00 | 0.00 | 79 | 1008.9 |
| 20260505165728 | 75 | 222 | 6.1 | 12.2 | 0.00 | 0.00 | 0.00 | 80 | 1009.0 |